sensor_id;sensor_type;location;lat;lon;timestamp;P1;durP1;ratioP1;P2;durP2;ratioP2
11064;SDS011;5585;52.530;7.320;2023-05-10T00:00:10;5.38;;;4.88;;
11064;SDS011;5585;52.530;7.320;2023-05-10T00:02:38;5.07;;;4.68;;
11064;SDS011;5585;52.530;7.320;2023-05-10T00:05:05;4.93;;;4.53;;
11064;SDS011;5585;52.530;7.320;2023-05-10T00:07:32;5.60;;;5.10;;
11064;SDS011;5585;52.530;7.320;2023-05-10T00:09:59;5.47;;;4.97;;
11064;SDS011;5585;52.530;7.320;2023-05-10T00:12:25;4.65;;;4.25;;
11064;SDS011;5585;52.530;7.320;2023-05-10T00:14:51;5.32;;;4.82;;
11064;SDS011;5585;52.530;7.320;2023-05-10T00:17:18;5.00;;;4.60;;
11064;SDS011;5585;52.530;7.320;2023-05-10T00:19:46;5.35;;;4.85;;
11064;SDS011;5585;52.530;7.320;2023-05-10T00:22:13;5.25;;;4.85;;
11064;SDS011;5585;52.530;7.320;2023-05-10T00:24:39;5.10;;;4.60;;
11064;SDS011;5585;52.530;7.320;2023-05-10T00:27:06;4.88;;;4.47;;
11064;SDS011;5585;52.530;7.320;2023-05-10T00:29:32;5.82;;;5.32;;
11064;SDS011;5585;52.530;7.320;2023-05-10T00:31:59;5.25;;;4.75;;
11064;SDS011;5585;52.530;7.320;2023-05-10T00:34:25;4.80;;;4.40;;
11064;SDS011;5585;52.530;7.320;2023-05-10T00:36:53;5.00;;;4.60;;
11064;SDS011;5585;52.530;7.320;2023-05-10T00:39:21;5.57;;;5.13;;
11064;SDS011;5585;52.530;7.320;2023-05-10T00:41:47;5.63;;;5.13;;
11064;SDS011;5585;52.530;7.320;2023-05-10T00:44:14;4.82;;;4.43;;
11064;SDS011;5585;52.530;7.320;2023-05-10T00:46:41;5.10;;;4.70;;
11064;SDS011;5585;52.530;7.320;2023-05-10T00:49:07;4.47;;;4.07;;
11064;SDS011;5585;52.530;7.320;2023-05-10T00:51:34;5.60;;;5.07;;
11064;SDS011;5585;52.530;7.320;2023-05-10T00:54:03;5.28;;;4.88;;
11064;SDS011;5585;52.530;7.320;2023-05-10T00:56:30;5.35;;;4.95;;
11064;SDS011;5585;52.530;7.320;2023-05-10T00:58:57;5.30;;;4.90;;
11064;SDS011;5585;52.530;7.320;2023-05-10T01:01:23;5.55;;;5.10;;
11064;SDS011;5585;52.530;7.320;2023-05-10T01:03:50;6.32;;;5.80;;
11064;SDS011;5585;52.530;7.320;2023-05-10T01:06:17;5.43;;;4.22;;
11064;SDS011;5585;52.530;7.320;2023-05-10T01:08:44;3.22;;;2.92;;
11064;SDS011;5585;52.530;7.320;2023-05-10T01:11:12;2.20;;;2.10;;
11064;SDS011;5585;52.530;7.320;2023-05-10T01:13:39;2.78;;;2.20;;
11064;SDS011;5585;52.530;7.320;2023-05-10T01:16:06;3.08;;;2.60;;
11064;SDS011;5585;52.530;7.320;2023-05-10T01:18:33;3.10;;;2.90;;
11064;SDS011;5585;52.530;7.320;2023-05-10T01:21:04;3.10;;;2.80;;
11064;SDS011;5585;52.530;7.320;2023-05-10T01:23:44;3.47;;;3.17;;
11064;SDS011;5585;52.530;7.320;2023-05-10T01:26:25;4.00;;;3.70;;
11064;SDS011;5585;52.530;7.320;2023-05-10T01:28:58;4.00;;;3.70;;
11064;SDS011;5585;52.530;7.320;2023-05-10T01:34:14;3.90;;;3.60;;
11064;SDS011;5585;52.530;7.320;2023-05-10T01:36:43;4.80;;;4.40;;
11064;SDS011;5585;52.530;7.320;2023-05-10T01:39:14;4.72;;;4.32;;
11064;SDS011;5585;52.530;7.320;2023-05-10T01:41:44;4.90;;;4.50;;
11064;SDS011;5585;52.530;7.320;2023-05-10T01:44:14;6.03;;;5.50;;
11064;SDS011;5585;52.530;7.320;2023-05-10T01:46:42;5.53;;;5.03;;
11064;SDS011;5585;52.530;7.320;2023-05-10T01:49:10;6.63;;;5.00;;
11064;SDS011;5585;52.530;7.320;2023-05-10T01:51:41;5.80;;;5.30;;
11064;SDS011;5585;52.530;7.320;2023-05-10T01:54:08;5.88;;;5.32;;
11064;SDS011;5585;52.530;7.320;2023-05-10T01:56:36;6.10;;;5.60;;
11064;SDS011;5585;52.530;7.320;2023-05-10T01:59:04;5.90;;;5.40;;
11064;SDS011;5585;52.530;7.320;2023-05-10T02:01:32;6.65;;;6.10;;
11064;SDS011;5585;52.530;7.320;2023-05-10T02:03:59;6.47;;;5.97;;
11064;SDS011;5585;52.530;7.320;2023-05-10T02:06:27;7.32;;;6.72;;
11064;SDS011;5585;52.530;7.320;2023-05-10T02:08:55;7.20;;;6.60;;
11064;SDS011;5585;52.530;7.320;2023-05-10T02:11:22;8.13;;;7.32;;
11064;SDS011;5585;52.530;7.320;2023-05-10T02:13:50;8.25;;;7.55;;
11064;SDS011;5585;52.530;7.320;2023-05-10T02:16:17;8.25;;;7.55;;
11064;SDS011;5585;52.530;7.320;2023-05-10T02:18:44;7.88;;;7.18;;
11064;SDS011;5585;52.530;7.320;2023-05-10T02:21:11;8.32;;;7.57;;
11064;SDS011;5585;52.530;7.320;2023-05-10T02:23:39;8.20;;;7.50;;
11064;SDS011;5585;52.530;7.320;2023-05-10T02:26:07;8.43;;;7.72;;
11064;SDS011;5585;52.530;7.320;2023-05-10T02:28:34;8.82;;;8.02;;
11064;SDS011;5585;52.530;7.320;2023-05-10T02:31:02;9.68;;;8.88;;
11064;SDS011;5585;52.530;7.320;2023-05-10T02:33:29;8.70;;;8.00;;
11064;SDS011;5585;52.530;7.320;2023-05-10T02:35:56;9.75;;;8.85;;
11064;SDS011;5585;52.530;7.320;2023-05-10T02:38:23;8.35;;;7.65;;
11064;SDS011;5585;52.530;7.320;2023-05-10T02:40:51;8.90;;;8.10;;
11064;SDS011;5585;52.530;7.320;2023-05-10T02:43:20;9.18;;;8.35;;
11064;SDS011;5585;52.530;7.320;2023-05-10T02:45:49;8.53;;;7.73;;
11064;SDS011;5585;52.530;7.320;2023-05-10T02:48:15;8.68;;;7.88;;
11064;SDS011;5585;52.530;7.320;2023-05-10T02:50:43;9.05;;;8.25;;
11064;SDS011;5585;52.530;7.320;2023-05-10T02:53:10;8.98;;;8.13;;
11064;SDS011;5585;52.530;7.320;2023-05-10T02:55:38;8.47;;;7.67;;
11064;SDS011;5585;52.530;7.320;2023-05-10T02:58:06;8.90;;;8.15;;
11064;SDS011;5585;52.530;7.320;2023-05-10T03:00:33;9.13;;;8.27;;
11064;SDS011;5585;52.530;7.320;2023-05-10T03:03:00;8.43;;;7.72;;
11064;SDS011;5585;52.530;7.320;2023-05-10T03:05:27;8.45;;;7.75;;
11064;SDS011;5585;52.530;7.320;2023-05-10T03:07:53;8.70;;;7.90;;
11064;SDS011;5585;52.530;7.320;2023-05-10T03:10:20;8.52;;;7.72;;
11064;SDS011;5585;52.530;7.320;2023-05-10T03:12:55;8.82;;;8.02;;
11064;SDS011;5585;52.530;7.320;2023-05-10T03:15:25;8.55;;;7.65;;
11064;SDS011;5585;52.530;7.320;2023-05-10T03:17:57;9.00;;;8.20;;
11064;SDS011;5585;52.530;7.320;2023-05-10T03:20:25;8.80;;;8.10;;
11064;SDS011;5585;52.530;7.320;2023-05-10T03:22:53;8.13;;;7.43;;
11064;SDS011;5585;52.530;7.320;2023-05-10T03:25:21;8.40;;;7.70;;
11064;SDS011;5585;52.530;7.320;2023-05-10T03:27:48;7.78;;;7.07;;
11064;SDS011;5585;52.530;7.320;2023-05-10T03:30:15;8.33;;;7.63;;
11064;SDS011;5585;52.530;7.320;2023-05-10T03:32:42;8.10;;;7.40;;
11064;SDS011;5585;52.530;7.320;2023-05-10T03:35:11;8.60;;;7.80;;
11064;SDS011;5585;52.530;7.320;2023-05-10T03:37:38;7.75;;;6.82;;
11064;SDS011;5585;52.530;7.320;2023-05-10T03:40:05;8.07;;;7.30;;
11064;SDS011;5585;52.530;7.320;2023-05-10T03:42:31;8.02;;;7.32;;
11064;SDS011;5585;52.530;7.320;2023-05-10T03:44:59;7.97;;;7.28;;
11064;SDS011;5585;52.530;7.320;2023-05-10T03:47:26;8.15;;;7.40;;
11064;SDS011;5585;52.530;7.320;2023-05-10T03:49:52;7.38;;;6.72;;
11064;SDS011;5585;52.530;7.320;2023-05-10T03:52:20;7.97;;;7.22;;
11064;SDS011;5585;52.530;7.320;2023-05-10T03:54:46;7.80;;;7.03;;
11064;SDS011;5585;52.530;7.320;2023-05-10T03:57:13;7.43;;;6.80;;
11064;SDS011;5585;52.530;7.320;2023-05-10T03:59:39;7.55;;;6.80;;
11064;SDS011;5585;52.530;7.320;2023-05-10T04:02:06;7.88;;;7.18;;
11064;SDS011;5585;52.530;7.320;2023-05-10T04:04:32;8.05;;;7.25;;
11064;SDS011;5585;52.530;7.320;2023-05-10T04:06:59;7.60;;;6.90;;
11064;SDS011;5585;52.530;7.320;2023-05-10T04:09:27;7.78;;;7.07;;
11064;SDS011;5585;52.530;7.320;2023-05-10T04:11:53;7.57;;;6.88;;
11064;SDS011;5585;52.530;7.320;2023-05-10T04:14:22;7.65;;;6.95;;
11064;SDS011;5585;52.530;7.320;2023-05-10T04:16:49;7.47;;;6.88;;
11064;SDS011;5585;52.530;7.320;2023-05-10T04:19:16;7.43;;;6.75;;
11064;SDS011;5585;52.530;7.320;2023-05-10T04:21:42;7.30;;;6.70;;
11064;SDS011;5585;52.530;7.320;2023-05-10T04:24:09;7.70;;;7.00;;
11064;SDS011;5585;52.530;7.320;2023-05-10T04:26:37;7.53;;;6.82;;
11064;SDS011;5585;52.530;7.320;2023-05-10T04:29:06;7.53;;;6.82;;
11064;SDS011;5585;52.530;7.320;2023-05-10T04:31:33;7.65;;;6.95;;
11064;SDS011;5585;52.530;7.320;2023-05-10T04:34:01;8.23;;;7.40;;
11064;SDS011;5585;52.530;7.320;2023-05-10T04:36:28;7.55;;;6.85;;
11064;SDS011;5585;52.530;7.320;2023-05-10T04:38:54;7.35;;;6.72;;
11064;SDS011;5585;52.530;7.320;2023-05-10T04:41:21;8.20;;;7.40;;
11064;SDS011;5585;52.530;7.320;2023-05-10T04:43:49;7.40;;;6.70;;
11064;SDS011;5585;52.530;7.320;2023-05-10T04:46:15;8.70;;;7.90;;
11064;SDS011;5585;52.530;7.320;2023-05-10T04:48:42;9.07;;;8.17;;
11064;SDS011;5585;52.530;7.320;2023-05-10T04:51:09;8.10;;;7.30;;
11064;SDS011;5585;52.530;7.320;2023-05-10T04:53:35;8.20;;;7.40;;
11064;SDS011;5585;52.530;7.320;2023-05-10T04:56:02;8.27;;;7.47;;
11064;SDS011;5585;52.530;7.320;2023-05-10T04:58:28;8.17;;;7.37;;
11064;SDS011;5585;52.530;7.320;2023-05-10T05:00:56;8.97;;;8.07;;
11064;SDS011;5585;52.530;7.320;2023-05-10T05:03:23;10.50;;;7.50;;
11064;SDS011;5585;52.530;7.320;2023-05-10T05:05:49;9.52;;;8.63;;
11064;SDS011;5585;52.530;7.320;2023-05-10T05:08:16;9.02;;;8.13;;
11064;SDS011;5585;52.530;7.320;2023-05-10T05:10:42;9.82;;;8.82;;
11064;SDS011;5585;52.530;7.320;2023-05-10T05:13:09;10.43;;;8.85;;
11064;SDS011;5585;52.530;7.320;2023-05-10T05:15:35;9.88;;;8.82;;
11064;SDS011;5585;52.530;7.320;2023-05-10T05:18:03;9.65;;;8.75;;
11064;SDS011;5585;52.530;7.320;2023-05-10T05:20:31;11.02;;;9.40;;
11064;SDS011;5585;52.530;7.320;2023-05-10T05:22:58;9.23;;;8.32;;
11064;SDS011;5585;52.530;7.320;2023-05-10T05:25:24;9.52;;;8.60;;
11064;SDS011;5585;52.530;7.320;2023-05-10T05:27:51;9.73;;;8.82;;
11064;SDS011;5585;52.530;7.320;2023-05-10T05:30:17;10.25;;;9.25;;
11064;SDS011;5585;52.530;7.320;2023-05-10T05:32:44;9.88;;;8.88;;
11064;SDS011;5585;52.530;7.320;2023-05-10T05:35:13;10.73;;;9.15;;
11064;SDS011;5585;52.530;7.320;2023-05-10T05:37:39;10.20;;;8.98;;
11064;SDS011;5585;52.530;7.320;2023-05-10T05:40:06;10.07;;;8.68;;
11064;SDS011;5585;52.530;7.320;2023-05-10T05:42:33;10.13;;;9.07;;
11064;SDS011;5585;52.530;7.320;2023-05-10T05:45:00;10.30;;;9.20;;
11064;SDS011;5585;52.530;7.320;2023-05-10T05:47:26;10.73;;;9.23;;
11064;SDS011;5585;52.530;7.320;2023-05-10T05:49:52;9.77;;;8.77;;
11064;SDS011;5585;52.530;7.320;2023-05-10T05:52:21;9.47;;;8.43;;
11064;SDS011;5585;52.530;7.320;2023-05-10T05:54:48;11.00;;;8.98;;
11064;SDS011;5585;52.530;7.320;2023-05-10T05:57:15;10.73;;;9.32;;
11064;SDS011;5585;52.530;7.320;2023-05-10T05:59:41;10.07;;;8.33;;
11064;SDS011;5585;52.530;7.320;2023-05-10T06:02:09;11.10;;;9.07;;
11064;SDS011;5585;52.530;7.320;2023-05-10T06:04:35;10.32;;;9.13;;
11064;SDS011;5585;52.530;7.320;2023-05-10T06:07:02;10.30;;;8.65;;
11064;SDS011;5585;52.530;7.320;2023-05-10T06:09:32;11.50;;;9.05;;
11064;SDS011;5585;52.530;7.320;2023-05-10T06:11:59;10.07;;;8.48;;
11064;SDS011;5585;52.530;7.320;2023-05-10T06:14:25;8.65;;;7.65;;
11064;SDS011;5585;52.530;7.320;2023-05-10T06:16:52;10.30;;;8.80;;
11064;SDS011;5585;52.530;7.320;2023-05-10T06:19:19;9.13;;;7.60;;
11064;SDS011;5585;52.530;7.320;2023-05-10T06:21:45;9.88;;;8.85;;
11064;SDS011;5585;52.530;7.320;2023-05-10T06:24:12;9.15;;;7.80;;
11064;SDS011;5585;52.530;7.320;2023-05-10T06:26:39;9.60;;;8.20;;
11064;SDS011;5585;52.530;7.320;2023-05-10T06:29:06;8.77;;;7.40;;
11064;SDS011;5585;52.530;7.320;2023-05-10T06:31:32;9.48;;;7.72;;
11064;SDS011;5585;52.530;7.320;2023-05-10T06:33:59;10.35;;;7.60;;
11064;SDS011;5585;52.530;7.320;2023-05-10T06:36:25;8.93;;;7.60;;
11064;SDS011;5585;52.530;7.320;2023-05-10T06:38:52;10.60;;;8.07;;
11064;SDS011;5585;52.530;7.320;2023-05-10T06:41:19;8.25;;;7.45;;
11064;SDS011;5585;52.530;7.320;2023-05-10T06:43:47;9.32;;;7.43;;
11064;SDS011;5585;52.530;7.320;2023-05-10T06:46:14;9.57;;;7.70;;
11064;SDS011;5585;52.530;7.320;2023-05-10T06:48:40;8.87;;;7.60;;
11064;SDS011;5585;52.530;7.320;2023-05-10T06:51:07;8.57;;;7.47;;
11064;SDS011;5585;52.530;7.320;2023-05-10T06:53:33;9.23;;;7.63;;
11064;SDS011;5585;52.530;7.320;2023-05-10T06:56:00;10.00;;;8.15;;
11064;SDS011;5585;52.530;7.320;2023-05-10T06:58:27;10.82;;;8.10;;
11064;SDS011;5585;52.530;7.320;2023-05-10T07:00:55;11.13;;;8.43;;
11064;SDS011;5585;52.530;7.320;2023-05-10T07:03:27;11.60;;;8.35;;
11064;SDS011;5585;52.530;7.320;2023-05-10T07:05:54;9.77;;;7.90;;
11064;SDS011;5585;52.530;7.320;2023-05-10T07:08:28;10.63;;;7.88;;
11064;SDS011;5585;52.530;7.320;2023-05-10T07:10:58;11.20;;;9.23;;
11064;SDS011;5585;52.530;7.320;2023-05-10T07:13:25;11.77;;;9.65;;
11064;SDS011;5585;52.530;7.320;2023-05-10T07:15:52;10.43;;;8.43;;
11064;SDS011;5585;52.530;7.320;2023-05-10T07:18:19;12.38;;;9.40;;
11064;SDS011;5585;52.530;7.320;2023-05-10T07:20:46;13.23;;;10.13;;
11064;SDS011;5585;52.530;7.320;2023-05-10T07:23:12;11.00;;;9.03;;
11064;SDS011;5585;52.530;7.320;2023-05-10T07:25:39;12.98;;;9.68;;
11064;SDS011;5585;52.530;7.320;2023-05-10T07:28:06;13.43;;;9.50;;
11064;SDS011;5585;52.530;7.320;2023-05-10T07:30:32;12.43;;;10.02;;
11064;SDS011;5585;52.530;7.320;2023-05-10T07:32:59;12.10;;;9.88;;
11064;SDS011;5585;52.530;7.320;2023-05-10T07:35:27;11.73;;;9.57;;
11064;SDS011;5585;52.530;7.320;2023-05-10T07:37:53;15.07;;;11.32;;
11064;SDS011;5585;52.530;7.320;2023-05-10T07:40:20;13.73;;;10.45;;
11064;SDS011;5585;52.530;7.320;2023-05-10T07:42:46;10.75;;;9.65;;
11064;SDS011;5585;52.530;7.320;2023-05-10T07:45:13;12.77;;;9.45;;
11064;SDS011;5585;52.530;7.320;2023-05-10T07:47:39;11.52;;;10.13;;
11064;SDS011;5585;52.530;7.320;2023-05-10T07:50:06;13.13;;;9.23;;
11064;SDS011;5585;52.530;7.320;2023-05-10T07:52:35;11.13;;;8.88;;
11064;SDS011;5585;52.530;7.320;2023-05-10T07:55:01;11.57;;;10.35;;
11064;SDS011;5585;52.530;7.320;2023-05-10T07:57:28;12.85;;;9.60;;
11064;SDS011;5585;52.530;7.320;2023-05-10T07:59:54;10.50;;;9.02;;
11064;SDS011;5585;52.530;7.320;2023-05-10T08:02:21;10.50;;;8.80;;
11064;SDS011;5585;52.530;7.320;2023-05-10T08:04:47;10.48;;;8.93;;
11064;SDS011;5585;52.530;7.320;2023-05-10T08:07:14;12.30;;;9.60;;
11064;SDS011;5585;52.530;7.320;2023-05-10T08:09:41;11.68;;;9.77;;
11064;SDS011;5585;52.530;7.320;2023-05-10T08:12:08;11.93;;;9.65;;
11064;SDS011;5585;52.530;7.320;2023-05-10T08:14:35;13.35;;;10.05;;
11064;SDS011;5585;52.530;7.320;2023-05-10T08:17:02;10.57;;;8.85;;
11064;SDS011;5585;52.530;7.320;2023-05-10T08:19:28;10.90;;;8.98;;
11064;SDS011;5585;52.530;7.320;2023-05-10T08:21:55;8.77;;;7.45;;
11064;SDS011;5585;52.530;7.320;2023-05-10T08:24:22;13.48;;;11.18;;
11064;SDS011;5585;52.530;7.320;2023-05-10T08:26:50;10.23;;;8.82;;
11064;SDS011;5585;52.530;7.320;2023-05-10T08:29:16;10.65;;;9.18;;
11064;SDS011;5585;52.530;7.320;2023-05-10T08:31:43;10.35;;;8.90;;
11064;SDS011;5585;52.530;7.320;2023-05-10T08:34:10;10.13;;;9.02;;
11064;SDS011;5585;52.530;7.320;2023-05-10T08:36:36;9.13;;;7.72;;
11064;SDS011;5585;52.530;7.320;2023-05-10T08:39:03;8.85;;;7.68;;
11064;SDS011;5585;52.530;7.320;2023-05-10T08:41:29;10.05;;;7.75;;
11064;SDS011;5585;52.530;7.320;2023-05-10T08:43:57;10.00;;;8.27;;
11064;SDS011;5585;52.530;7.320;2023-05-10T08:46:25;9.57;;;8.38;;
11064;SDS011;5585;52.530;7.320;2023-05-10T08:48:52;8.55;;;7.65;;
11064;SDS011;5585;52.530;7.320;2023-05-10T08:51:22;9.35;;;7.70;;
11064;SDS011;5585;52.530;7.320;2023-05-10T08:53:48;8.18;;;6.47;;
11064;SDS011;5585;52.530;7.320;2023-05-10T08:56:15;8.63;;;7.72;;
11064;SDS011;5585;52.530;7.320;2023-05-10T08:58:42;9.45;;;7.28;;
11064;SDS011;5585;52.530;7.320;2023-05-10T09:01:11;9.77;;;8.18;;
11064;SDS011;5585;52.530;7.320;2023-05-10T09:03:38;11.43;;;9.02;;
11064;SDS011;5585;52.530;7.320;2023-05-10T09:06:05;9.27;;;7.97;;
11064;SDS011;5585;52.530;7.320;2023-05-10T09:08:32;7.95;;;7.07;;
11064;SDS011;5585;52.530;7.320;2023-05-10T09:10:59;9.38;;;6.93;;
11064;SDS011;5585;52.530;7.320;2023-05-10T09:13:26;9.30;;;6.57;;
11064;SDS011;5585;52.530;7.320;2023-05-10T09:15:53;7.53;;;5.50;;
11064;SDS011;5585;52.530;7.320;2023-05-10T09:18:21;6.25;;;5.63;;
11064;SDS011;5585;52.530;7.320;2023-05-10T09:20:48;6.90;;;5.45;;
11064;SDS011;5585;52.530;7.320;2023-05-10T09:23:15;7.20;;;5.78;;
11064;SDS011;5585;52.530;7.320;2023-05-10T09:25:41;9.93;;;5.68;;
11064;SDS011;5585;52.530;7.320;2023-05-10T09:28:08;7.05;;;5.22;;
11064;SDS011;5585;52.530;7.320;2023-05-10T09:30:35;5.88;;;4.90;;
11064;SDS011;5585;52.530;7.320;2023-05-10T09:33:01;5.18;;;4.68;;
11064;SDS011;5585;52.530;7.320;2023-05-10T09:35:30;6.30;;;5.00;;
11064;SDS011;5585;52.530;7.320;2023-05-10T09:37:57;5.47;;;4.68;;
11064;SDS011;5585;52.530;7.320;2023-05-10T09:40:24;6.55;;;4.85;;
11064;SDS011;5585;52.530;7.320;2023-05-10T09:42:52;7.40;;;4.82;;
11064;SDS011;5585;52.530;7.320;2023-05-10T09:45:18;8.70;;;6.00;;
11064;SDS011;5585;52.530;7.320;2023-05-10T09:47:45;7.43;;;5.75;;
11064;SDS011;5585;52.530;7.320;2023-05-10T09:50:12;7.07;;;5.03;;
11064;SDS011;5585;52.530;7.320;2023-05-10T09:52:47;4.95;;;4.22;;
11064;SDS011;5585;52.530;7.320;2023-05-10T09:55:14;5.97;;;5.00;;
11064;SDS011;5585;52.530;7.320;2023-05-10T09:57:40;7.53;;;5.05;;
11064;SDS011;5585;52.530;7.320;2023-05-10T10:00:07;7.47;;;4.80;;
11064;SDS011;5585;52.530;7.320;2023-05-10T10:02:35;8.13;;;5.85;;
11064;SDS011;5585;52.530;7.320;2023-05-10T10:05:01;7.00;;;5.50;;
11064;SDS011;5585;52.530;7.320;2023-05-10T10:07:28;7.47;;;4.90;;
11064;SDS011;5585;52.530;7.320;2023-05-10T10:09:56;7.53;;;5.05;;
11064;SDS011;5585;52.530;7.320;2023-05-10T10:12:24;5.78;;;4.72;;
11064;SDS011;5585;52.530;7.320;2023-05-10T10:14:51;6.85;;;4.90;;
11064;SDS011;5585;52.530;7.320;2023-05-10T10:17:18;6.00;;;4.13;;
11064;SDS011;5585;52.530;7.320;2023-05-10T10:19:46;5.57;;;3.55;;
11064;SDS011;5585;52.530;7.320;2023-05-10T10:22:12;4.13;;;3.05;;
11064;SDS011;5585;52.530;7.320;2023-05-10T10:24:39;2.60;;;2.40;;
11064;SDS011;5585;52.530;7.320;2023-05-10T10:27:14;3.50;;;2.22;;
11064;SDS011;5585;52.530;7.320;2023-05-10T10:29:45;3.50;;;2.53;;
11064;SDS011;5585;52.530;7.320;2023-05-10T10:32:18;4.85;;;2.85;;
11064;SDS011;5585;52.530;7.320;2023-05-10T10:34:46;5.50;;;2.95;;
11064;SDS011;5585;52.530;7.320;2023-05-10T10:37:13;4.20;;;2.55;;
11064;SDS011;5585;52.530;7.320;2023-05-10T10:39:41;4.40;;;3.15;;
11064;SDS011;5585;52.530;7.320;2023-05-10T10:42:07;2.90;;;2.55;;
11064;SDS011;5585;52.530;7.320;2023-05-10T10:44:36;3.10;;;2.60;;
11064;SDS011;5585;52.530;7.320;2023-05-10T10:47:05;3.85;;;2.50;;
11064;SDS011;5585;52.530;7.320;2023-05-10T10:49:37;3.70;;;3.25;;
11064;SDS011;5585;52.530;7.320;2023-05-10T10:52:13;5.03;;;3.42;;
11064;SDS011;5585;52.530;7.320;2023-05-10T10:54:47;4.20;;;3.22;;
11064;SDS011;5585;52.530;7.320;2023-05-10T10:57:17;3.85;;;2.65;;
11064;SDS011;5585;52.530;7.320;2023-05-10T10:59:45;3.20;;;2.58;;
11064;SDS011;5585;52.530;7.320;2023-05-10T11:02:23;4.03;;;3.10;;
11064;SDS011;5585;52.530;7.320;2023-05-10T11:04:58;5.45;;;3.47;;
11064;SDS011;5585;52.530;7.320;2023-05-10T11:07:25;4.65;;;3.65;;
11064;SDS011;5585;52.530;7.320;2023-05-10T11:09:52;4.05;;;2.90;;
11064;SDS011;5585;52.530;7.320;2023-05-10T11:12:19;4.63;;;3.25;;
11064;SDS011;5585;52.530;7.320;2023-05-10T11:14:50;3.92;;;3.50;;
11064;SDS011;5585;52.530;7.320;2023-05-10T11:17:23;5.70;;;3.78;;
11064;SDS011;5585;52.530;7.320;2023-05-10T11:20:06;8.45;;;4.95;;
11064;SDS011;5585;52.530;7.320;2023-05-10T11:22:38;4.82;;;4.25;;
11064;SDS011;5585;52.530;7.320;2023-05-10T11:25:15;5.00;;;3.88;;
11064;SDS011;5585;52.530;7.320;2023-05-10T11:27:41;6.95;;;5.32;;
11064;SDS011;5585;52.530;7.320;2023-05-10T11:30:11;6.72;;;5.25;;
11064;SDS011;5585;52.530;7.320;2023-05-10T11:32:38;7.18;;;5.10;;
11064;SDS011;5585;52.530;7.320;2023-05-10T11:35:06;6.72;;;4.95;;
11064;SDS011;5585;52.530;7.320;2023-05-10T11:37:33;7.72;;;5.07;;
11064;SDS011;5585;52.530;7.320;2023-05-10T11:39:59;5.75;;;4.32;;
11064;SDS011;5585;52.530;7.320;2023-05-10T11:42:27;5.65;;;4.43;;
11064;SDS011;5585;52.530;7.320;2023-05-10T11:44:54;6.70;;;4.63;;
11064;SDS011;5585;52.530;7.320;2023-05-10T11:47:24;5.82;;;4.50;;
11064;SDS011;5585;52.530;7.320;2023-05-10T11:49:50;5.57;;;4.53;;
11064;SDS011;5585;52.530;7.320;2023-05-10T11:52:18;5.20;;;4.15;;
11064;SDS011;5585;52.530;7.320;2023-05-10T11:54:50;5.35;;;4.20;;
11064;SDS011;5585;52.530;7.320;2023-05-10T11:57:17;4.97;;;4.10;;
11064;SDS011;5585;52.530;7.320;2023-05-10T11:59:45;6.28;;;3.80;;
11064;SDS011;5585;52.530;7.320;2023-05-10T12:02:22;4.80;;;3.70;;
11064;SDS011;5585;52.530;7.320;2023-05-10T12:04:49;3.50;;;3.20;;
11064;SDS011;5585;52.530;7.320;2023-05-10T12:07:16;4.95;;;3.70;;
11064;SDS011;5585;52.530;7.320;2023-05-10T12:09:43;4.03;;;3.28;;
11064;SDS011;5585;52.530;7.320;2023-05-10T12:12:09;3.97;;;3.30;;
11064;SDS011;5585;52.530;7.320;2023-05-10T12:14:36;2.53;;;2.33;;
11064;SDS011;5585;52.530;7.320;2023-05-10T12:17:02;3.85;;;2.80;;
11064;SDS011;5585;52.530;7.320;2023-05-10T12:19:37;3.40;;;3.10;;
11064;SDS011;5585;52.530;7.320;2023-05-10T12:22:04;3.83;;;3.33;;
11064;SDS011;5585;52.530;7.320;2023-05-10T12:24:33;5.25;;;3.03;;
11064;SDS011;5585;52.530;7.320;2023-05-10T12:26:59;3.55;;;3.03;;
11064;SDS011;5585;52.530;7.320;2023-05-10T12:29:26;3.22;;;2.80;;
11064;SDS011;5585;52.530;7.320;2023-05-10T12:31:56;3.75;;;2.63;;
11064;SDS011;5585;52.530;7.320;2023-05-10T12:34:24;3.70;;;2.70;;
11064;SDS011;5585;52.530;7.320;2023-05-10T12:36:52;2.85;;;2.53;;
11064;SDS011;5585;52.530;7.320;2023-05-10T12:39:19;2.78;;;2.58;;
11064;SDS011;5585;52.530;7.320;2023-05-10T12:41:46;2.30;;;2.10;;
11064;SDS011;5585;52.530;7.320;2023-05-10T12:44:12;3.30;;;2.88;;
11064;SDS011;5585;52.530;7.320;2023-05-10T12:46:39;2.40;;;2.13;;
11064;SDS011;5585;52.530;7.320;2023-05-10T12:49:05;3.00;;;2.28;;
11064;SDS011;5585;52.530;7.320;2023-05-10T12:51:32;3.50;;;2.60;;
11064;SDS011;5585;52.530;7.320;2023-05-10T12:53:59;3.03;;;2.40;;
11064;SDS011;5585;52.530;7.320;2023-05-10T12:56:26;2.20;;;2.00;;
11064;SDS011;5585;52.530;7.320;2023-05-10T12:58:52;2.40;;;1.70;;
11064;SDS011;5585;52.530;7.320;2023-05-10T13:01:19;2.58;;;2.25;;
11064;SDS011;5585;52.530;7.320;2023-05-10T13:03:45;2.15;;;1.73;;
11064;SDS011;5585;52.530;7.320;2023-05-10T13:06:12;2.33;;;2.08;;
11064;SDS011;5585;52.530;7.320;2023-05-10T13:08:39;3.53;;;2.15;;
11064;SDS011;5585;52.530;7.320;2023-05-10T13:11:07;2.17;;;1.85;;
11064;SDS011;5585;52.530;7.320;2023-05-10T13:13:33;2.35;;;2.13;;
11064;SDS011;5585;52.530;7.320;2023-05-10T13:16:00;3.28;;;2.72;;
11064;SDS011;5585;52.530;7.320;2023-05-10T13:18:26;3.00;;;2.60;;
11064;SDS011;5585;52.530;7.320;2023-05-10T13:20:53;2.95;;;2.40;;
11064;SDS011;5585;52.530;7.320;2023-05-10T13:23:19;2.22;;;1.88;;
11064;SDS011;5585;52.530;7.320;2023-05-10T13:25:46;2.58;;;2.38;;
11064;SDS011;5585;52.530;7.320;2023-05-10T13:28:14;3.20;;;2.30;;
11064;SDS011;5585;52.530;7.320;2023-05-10T13:30:40;2.92;;;2.35;;
11064;SDS011;5585;52.530;7.320;2023-05-10T13:33:07;2.47;;;2.25;;
11064;SDS011;5585;52.530;7.320;2023-05-10T13:35:33;3.08;;;2.03;;
11064;SDS011;5585;52.530;7.320;2023-05-10T13:38:00;4.22;;;2.40;;
11064;SDS011;5585;52.530;7.320;2023-05-10T13:40:26;2.25;;;1.98;;
11064;SDS011;5585;52.530;7.320;2023-05-10T13:42:53;3.22;;;2.17;;
11064;SDS011;5585;52.530;7.320;2023-05-10T13:45:21;2.97;;;2.60;;
11064;SDS011;5585;52.530;7.320;2023-05-10T13:47:47;4.05;;;2.70;;
11064;SDS011;5585;52.530;7.320;2023-05-10T13:50:14;3.45;;;2.40;;
11064;SDS011;5585;52.530;7.320;2023-05-10T13:52:41;2.38;;;2.17;;
11064;SDS011;5585;52.530;7.320;2023-05-10T13:55:07;3.28;;;2.38;;
11064;SDS011;5585;52.530;7.320;2023-05-10T13:57:34;2.70;;;2.22;;
11064;SDS011;5585;52.530;7.320;2023-05-10T14:00:01;3.78;;;2.10;;
11064;SDS011;5585;52.530;7.320;2023-05-10T14:02:29;3.00;;;2.63;;
11064;SDS011;5585;52.530;7.320;2023-05-10T14:04:55;3.35;;;2.50;;
11064;SDS011;5585;52.530;7.320;2023-05-10T14:07:22;2.35;;;1.85;;
11064;SDS011;5585;52.530;7.320;2023-05-10T14:09:48;2.20;;;1.67;;
11064;SDS011;5585;52.530;7.320;2023-05-10T14:12:15;1.85;;;1.40;;
11064;SDS011;5585;52.530;7.320;2023-05-10T14:14:41;4.28;;;2.25;;
11064;SDS011;5585;52.530;7.320;2023-05-10T14:17:08;2.08;;;1.88;;
11064;SDS011;5585;52.530;7.320;2023-05-10T14:19:36;3.22;;;2.40;;
11064;SDS011;5585;52.530;7.320;2023-05-10T14:22:03;2.72;;;1.75;;
11064;SDS011;5585;52.530;7.320;2023-05-10T14:24:30;3.95;;;2.88;;
11064;SDS011;5585;52.530;7.320;2023-05-10T14:26:57;3.30;;;2.55;;
11064;SDS011;5585;52.530;7.320;2023-05-10T14:29:23;3.40;;;2.42;;
11064;SDS011;5585;52.530;7.320;2023-05-10T14:31:50;4.30;;;2.40;;
11064;SDS011;5585;52.530;7.320;2023-05-10T14:34:16;3.70;;;2.70;;
11064;SDS011;5585;52.530;7.320;2023-05-10T14:36:44;3.80;;;2.60;;
11064;SDS011;5585;52.530;7.320;2023-05-10T14:39:11;3.95;;;2.58;;
11064;SDS011;5585;52.530;7.320;2023-05-10T14:41:38;2.90;;;2.38;;
11064;SDS011;5585;52.530;7.320;2023-05-10T14:44:06;3.20;;;2.30;;
11064;SDS011;5585;52.530;7.320;2023-05-10T14:46:33;4.30;;;2.85;;
11064;SDS011;5585;52.530;7.320;2023-05-10T14:48:59;4.15;;;2.90;;
11064;SDS011;5585;52.530;7.320;2023-05-10T14:51:26;5.00;;;2.97;;
11064;SDS011;5585;52.530;7.320;2023-05-10T14:53:53;4.18;;;2.78;;
11064;SDS011;5585;52.530;7.320;2023-05-10T14:56:20;3.10;;;2.80;;
11064;SDS011;5585;52.530;7.320;2023-05-10T14:58:47;5.40;;;4.10;;
11064;SDS011;5585;52.530;7.320;2023-05-10T15:01:13;5.07;;;3.88;;